createdAt,value
2023-04-16T00:02:46.559Z,9.90
2023-04-16T00:07:48.630Z,9.63
2023-04-16T00:12:49.269Z,9.63
2023-04-16T00:17:50.036Z,9.85
2023-04-16T00:22:52.112Z,9.88
2023-04-16T00:27:52.802Z,11.10
2023-04-16T00:32:53.443Z,10.43
2023-04-16T00:37:55.745Z,10.65
2023-04-16T00:42:56.378Z,10.20
2023-04-16T00:47:59.951Z,9.85
2023-04-16T00:53:04.159Z,9.95
2023-04-16T00:58:05.284Z,9.27
2023-04-16T01:03:06.373Z,10.18
2023-04-16T01:08:08.517Z,8.95
2023-04-16T01:13:09.127Z,10.13
2023-04-16T01:18:15.554Z,9.82
2023-04-16T01:23:18.524Z,9.85
2023-04-16T01:28:19.313Z,9.45
2023-04-16T01:33:20.452Z,9.30
2023-04-16T01:38:22.569Z,10.35
2023-04-16T01:43:23.166Z,10.55
2023-04-16T01:48:23.763Z,9.23
2023-04-16T01:53:25.650Z,8.85
2023-04-16T01:58:26.194Z,9.55
2023-04-16T02:03:27.050Z,9.88
2023-04-16T02:08:29.168Z,9.30
2023-04-16T02:13:29.744Z,9.55
2023-04-16T02:18:30.541Z,9.88
2023-04-16T02:23:33.276Z,9.68
2023-04-16T02:28:34.496Z,9.90
2023-04-16T02:33:35.969Z,10.65
2023-04-16T02:38:38.957Z,10.57
2023-04-16T02:43:40.797Z,9.43
2023-04-16T02:48:42.341Z,9.57
2023-04-16T02:53:46.078Z,10.57
2023-04-16T02:58:47.293Z,9.65
2023-04-16T03:03:47.933Z,9.65
2023-04-16T03:08:49.869Z,10.02
2023-04-16T03:13:50.656Z,9.40
2023-04-16T03:18:51.235Z,9.63
2023-04-16T03:23:53.958Z,8.90
2023-04-16T03:28:55.861Z,8.48
2023-04-16T03:33:57.094Z,8.40
2023-04-16T03:38:58.982Z,8.75
2023-04-16T03:44:01.992Z,9.18
2023-04-16T03:49:03.306Z,8.68
2023-04-16T03:54:05.426Z,9.20
2023-04-16T03:59:06.916Z,10.02
2023-04-16T04:04:09.555Z,10.07
2023-04-16T04:09:11.921Z,9.93
2023-04-16T04:14:12.670Z,9.55
2023-04-16T04:19:13.320Z,8.98
2023-04-16T04:24:15.381Z,10.10
2023-04-16T04:29:16.298Z,9.73
2023-04-16T04:34:16.950Z,9.32
2023-04-16T04:39:21.595Z,9.25
2023-04-16T04:44:23.403Z,8.85
2023-04-16T04:49:25.243Z,9.25
2023-04-16T04:54:28.775Z,9.60
2023-04-16T04:59:29.559Z,9.40
2023-04-16T05:04:30.784Z,9.63
2023-04-16T05:09:32.698Z,8.95
2023-04-16T05:14:33.388Z,8.77
2023-04-16T05:19:34.033Z,9.73
2023-04-16T05:24:35.929Z,9.75
2023-04-16T05:29:36.515Z,9.07
2023-04-16T05:34:37.126Z,8.95
2023-04-16T05:39:39.097Z,9.50
2023-04-16T05:44:39.673Z,9.35
2023-04-16T05:49:40.240Z,9.85
2023-04-16T05:54:42.172Z,9.23
2023-04-16T05:59:42.804Z,8.63
2023-04-16T06:04:43.505Z,8.60
2023-04-16T06:09:45.853Z,8.63
2023-04-16T06:14:46.432Z,10.02
2023-04-16T06:19:47.225Z,10.00
2023-04-16T06:24:49.130Z,10.48
2023-04-16T06:29:50.578Z,8.98
2023-04-16T06:34:51.265Z,10.15
2023-04-16T06:39:53.145Z,8.88
2023-04-16T06:44:53.735Z,9.77
2023-04-16T06:49:54.380Z,9.27
2023-04-16T06:54:56.402Z,8.48
2023-04-16T06:59:57.016Z,9.15
2023-04-16T07:04:57.632Z,9.30
2023-04-16T07:10:00.271Z,8.50
2023-04-16T07:15:00.855Z,9.43
2023-04-16T07:20:02.545Z,10.15
2023-04-16T07:25:05.270Z,9.75
2023-04-16T07:30:08.041Z,8.93
2023-04-16T07:35:09.460Z,10.05
2023-04-16T07:40:12.706Z,8.98
2023-04-16T07:45:16.893Z,10.48
2023-04-16T07:50:19.396Z,9.23
2023-04-16T07:55:21.460Z,9.15
2023-04-16T08:00:22.420Z,9.38
2023-04-16T08:05:23.096Z,9.38
2023-04-16T08:10:25.099Z,10.00
2023-04-16T08:15:25.711Z,10.40
2023-04-16T08:20:26.693Z,10.63
2023-04-16T08:25:28.713Z,10.90
2023-04-16T08:30:29.600Z,9.48
2023-04-16T08:35:30.462Z,12.20
2023-04-16T08:40:33.221Z,12.00
2023-04-16T08:45:37.711Z,12.45
2023-04-16T08:50:38.630Z,12.82
2023-04-16T08:55:44.525Z,13.25
2023-04-16T09:00:46.121Z,11.88
2023-04-16T09:05:48.067Z,11.82
2023-04-16T09:10:51.390Z,11.77
2023-04-16T09:15:53.977Z,12.20
2023-04-16T09:20:56.337Z,10.65
2023-04-16T09:25:59.542Z,10.38
2023-04-16T09:31:09.207Z,12.13
2023-04-16T09:36:10.361Z,10.63
2023-04-16T09:41:12.408Z,10.30
2023-04-16T09:46:13.421Z,9.80
2023-04-16T09:51:14.042Z,10.00
2023-04-16T09:56:16.000Z,10.88
2023-04-16T10:01:19.411Z,10.68
2023-04-16T10:06:21.955Z,10.40
2023-04-16T10:11:24.414Z,10.43
2023-04-16T10:16:25.360Z,11.00
2023-04-16T10:21:33.063Z,9.73
2023-04-16T10:26:37.031Z,9.35
2023-04-16T10:31:39.551Z,9.40
2023-04-16T10:36:40.656Z,9.13
2023-04-16T10:41:43.688Z,8.50
2023-04-16T10:46:45.673Z,7.22
2023-04-16T10:51:54.965Z,7.60
2023-04-16T10:56:58.214Z,7.03
2023-04-16T11:02:01.564Z,7.25
2023-04-16T11:07:04.538Z,8.35
2023-04-16T11:12:10.126Z,13.98
2023-04-16T11:17:11.220Z,7.75
2023-04-16T11:22:14.280Z,7.13
2023-04-16T11:27:16.594Z,6.50
2023-04-16T11:32:22.680Z,11.73
2023-04-16T11:37:33.381Z,14.70
2023-04-16T11:42:37.182Z,4.88
2023-04-16T11:47:45.094Z,4.95
2023-04-16T11:52:45.812Z,5.05
2023-04-16T11:57:47.861Z,3.85
2023-04-16T12:02:52.272Z,4.15
2023-04-16T12:07:53.177Z,2.97
2023-04-16T12:12:55.250Z,3.47
2023-04-16T12:18:08.172Z,4.18
2023-04-16T12:23:09.194Z,3.15
2023-04-16T12:28:11.157Z,3.38
2023-04-16T12:33:16.510Z,3.08
2023-04-16T12:38:17.396Z,3.13
2023-04-16T12:43:19.841Z,3.15
2023-04-16T12:48:20.510Z,3.13
2023-04-16T12:53:21.127Z,2.95
2023-04-16T12:58:23.122Z,3.00
2023-04-16T13:03:24.045Z,3.08
2023-04-16T13:08:24.988Z,3.33
2023-04-16T13:13:26.913Z,4.03
2023-04-16T13:18:27.843Z,3.80
2023-04-16T13:23:28.434Z,3.65
2023-04-16T13:28:30.719Z,4.22
2023-04-16T13:33:31.707Z,4.05
2023-04-16T13:38:32.273Z,3.65
2023-04-16T13:43:34.176Z,4.50
2023-04-16T13:48:34.857Z,4.43
2023-04-16T13:53:35.619Z,4.80
2023-04-16T13:58:37.552Z,5.05
2023-04-16T14:03:38.988Z,4.55
2023-04-16T14:08:39.680Z,4.78
2023-04-16T14:13:41.636Z,5.10
2023-04-16T14:18:42.446Z,4.43
2023-04-16T14:23:43.113Z,4.28
2023-04-16T14:28:45.374Z,5.15
2023-04-16T14:33:45.963Z,5.05
2023-04-16T14:38:48.394Z,5.45
2023-04-16T14:43:50.421Z,5.10
2023-04-16T14:48:50.987Z,5.85
2023-04-16T14:53:51.671Z,5.80
2023-04-16T14:58:53.605Z,5.32
2023-04-16T15:03:56.355Z,5.95
2023-04-16T15:08:57.020Z,6.20
2023-04-16T15:13:59.208Z,5.35
2023-04-16T15:19:00.085Z,5.07
2023-04-16T15:24:00.675Z,4.85
2023-04-16T15:29:02.692Z,4.93
2023-04-16T15:34:03.377Z,4.35
2023-04-16T15:39:04.200Z,3.38
2023-04-16T15:44:06.248Z,3.78
2023-04-16T15:49:07.194Z,3.40
2023-04-16T15:54:07.816Z,3.50
2023-04-16T15:59:09.932Z,3.33
2023-04-16T16:04:11.242Z,3.90
2023-04-16T16:09:12.444Z,3.70
2023-04-16T16:14:15.835Z,3.42
2023-04-16T16:19:18.014Z,2.90
2023-04-16T16:24:19.097Z,3.22
2023-04-16T16:29:21.234Z,3.50
2023-04-16T16:34:21.856Z,3.25
2023-04-16T16:39:24.525Z,3.75
2023-04-16T16:44:28.172Z,3.28
2023-04-16T16:49:28.793Z,3.10
2023-04-16T16:54:29.335Z,3.28
2023-04-16T16:59:31.424Z,3.17
2023-04-16T17:04:32.057Z,3.03
2023-04-16T17:09:32.781Z,3.10
2023-04-16T17:14:34.945Z,3.47
2023-04-16T17:19:35.675Z,2.88
2023-04-16T17:24:36.495Z,3.60
2023-04-16T17:29:38.426Z,3.20
2023-04-16T17:34:39.136Z,3.58
2023-04-16T17:39:39.752Z,3.75
2023-04-16T17:44:41.719Z,3.33
2023-04-16T17:49:42.361Z,3.95
2023-04-16T17:54:43.258Z,3.65
2023-04-16T17:59:45.313Z,4.60
2023-04-16T18:04:46.636Z,5.60
2023-04-16T18:09:47.519Z,8.65
2023-04-16T18:14:49.517Z,8.77
2023-04-16T18:19:50.293Z,8.55
2023-04-16T18:24:50.919Z,10.38
2023-04-16T18:29:54.823Z,10.23
2023-04-16T18:34:55.801Z,12.48
2023-04-16T18:39:58.061Z,13.30
2023-04-16T18:45:00.296Z,12.65
2023-04-16T18:50:00.935Z,11.60
2023-04-16T18:55:01.559Z,9.88
2023-04-16T19:00:08.962Z,8.50
2023-04-16T19:05:10.428Z,7.53
2023-04-16T19:10:12.247Z,7.28
2023-04-16T19:15:14.781Z,7.05
2023-04-16T19:20:15.546Z,8.30
2023-04-16T19:25:16.372Z,8.00
2023-04-16T19:30:18.746Z,7.38
2023-04-16T19:35:19.321Z,6.75
2023-04-16T19:40:20.162Z,6.45
2023-04-16T19:45:25.722Z,6.03
2023-04-16T19:50:26.347Z,5.60
2023-04-16T19:55:26.967Z,5.60
2023-04-16T20:00:29.029Z,5.32
2023-04-16T20:05:30.322Z,5.25
2023-04-16T20:10:31.924Z,5.32
2023-04-16T20:15:33.875Z,5.18
2023-04-16T20:20:35.879Z,5.75
2023-04-16T20:25:36.541Z,6.80
2023-04-16T20:30:39.603Z,6.93
2023-04-16T20:35:40.279Z,6.40
2023-04-16T20:40:41.937Z,6.63
2023-04-16T20:45:45.882Z,6.60
2023-04-16T20:50:46.482Z,6.75
2023-04-16T20:55:47.085Z,6.22
2023-04-16T21:00:51.302Z,6.40
2023-04-16T21:05:53.154Z,5.30
2023-04-16T21:10:53.984Z,5.05
2023-04-16T21:15:55.958Z,5.20
2023-04-16T21:20:57.026Z,4.88
2023-04-16T21:25:57.652Z,6.13
2023-04-16T21:30:59.721Z,6.50
2023-04-16T21:36:00.390Z,6.78
2023-04-16T21:41:02.215Z,6.65
2023-04-16T21:46:04.382Z,6.65
2023-04-16T21:51:08.144Z,7.28
2023-04-16T21:56:08.824Z,8.35
2023-04-16T22:01:11.343Z,9.55
2023-04-16T22:06:13.239Z,9.30
2023-04-16T22:11:13.896Z,10.35
2023-04-16T22:16:15.881Z,9.88
2023-04-16T22:21:16.538Z,10.85
2023-04-16T22:26:17.100Z,10.88
2023-04-16T22:31:19.001Z,9.77
2023-04-16T22:36:19.617Z,10.15
2023-04-16T22:41:20.194Z,9.88
2023-04-16T22:46:22.533Z,9.93
2023-04-16T22:51:24.373Z,9.98
2023-04-16T22:56:28.664Z,10.07
2023-04-16T23:01:30.739Z,10.18
2023-04-16T23:06:31.566Z,11.57
2023-04-16T23:11:32.144Z,11.13
2023-04-16T23:16:34.098Z,10.95
2023-04-16T23:21:34.670Z,11.27
2023-04-16T23:26:35.293Z,10.18
2023-04-16T23:31:37.337Z,10.10
2023-04-16T23:36:37.920Z,10.45
2023-04-16T23:41:38.540Z,10.65
2023-04-16T23:46:41.008Z,11.23
2023-04-16T23:51:41.614Z,11.60
2023-04-16T23:56:42.371Z,12.00
